ETD185 OMAA-OOMS
Flight info
| Callsign | ETD185 |
|---|---|
| Flight time | 0h 54m |
| Altitude | 21000 |
| Route | ORNEL N685 LAKLU G216 MCT |
| Aircraft | A333/H-SDE3GHIJ2J3J5M1RVWXY/LB2D1 |
Departure
| Time | 2026-05-09 01:46 |
|---|---|
| Airport | Zayed International Airport (OMAA) |
Arrival
| Time | 2026-05-09 02:40 |
|---|---|
| Airport | Muscat International Airport (OOMS) |
| Time | Latitude | Longitude | Altitude | Speed | Heading |
|---|---|---|---|---|---|
| 2026-05-09 01:27 | 24.45319 | 54.64325 | 62 ft | 0 kts | 215° |
| 2026-05-09 01:33 | 24.45336 | 54.64337 | 62 ft | 4 kts | 214° |
| 2026-05-09 01:34 | 24.45358 | 54.64353 | 62 ft | 3 kts | 214° |
| 2026-05-09 01:34 | 24.45377 | 54.64366 | 62 ft | 4 kts | 199° |
| 2026-05-09 01:34 | 24.45403 | 54.64370 | 62 ft | 4 kts | 172° |
| 2026-05-09 01:34 | 24.45422 | 54.64366 | 62 ft | 0 kts | 162° |
| 2026-05-09 01:37 | 24.45390 | 54.64385 | 62 ft | 10 kts | 144° |
| 2026-05-09 01:38 | 24.45327 | 54.64469 | 62 ft | 18 kts | 117° |
| 2026-05-09 01:38 | 24.45283 | 54.64625 | 77 ft | 26 kts | 102° |
| 2026-05-09 01:38 | 24.45241 | 54.64835 | 59 ft | 29 kts | 106° |
| 2026-05-09 01:38 | 24.45161 | 54.65038 | 55 ft | 29 kts | 128° |
| 2026-05-09 01:39 | 24.45037 | 54.65218 | 56 ft | 29 kts | 123° |
| 2026-05-09 01:39 | 24.44909 | 54.65395 | 59 ft | 30 kts | 129° |
| 2026-05-09 01:39 | 24.44751 | 54.65521 | 56 ft | 28 kts | 189° |
| 2026-05-09 01:39 | 24.44589 | 54.65408 | 58 ft | 28 kts | 218° |
| 2026-05-09 01:40 | 24.44434 | 54.65272 | 55 ft | 29 kts | 219° |
| 2026-05-09 01:40 | 24.44273 | 54.65134 | 55 ft | 30 kts | 217° |
| 2026-05-09 01:40 | 24.44111 | 54.64995 | 64 ft | 29 kts | 218° |
| 2026-05-09 01:40 | 24.43950 | 54.64861 | 56 ft | 29 kts | 218° |
| 2026-05-09 01:41 | 24.43798 | 54.64887 | 56 ft | 22 kts | 125° |
| 2026-05-09 01:41 | 24.43703 | 54.65026 | 59 ft | 24 kts | 128° |
| 2026-05-09 01:41 | 24.43596 | 54.65178 | 56 ft | 26 kts | 127° |
| 2026-05-09 01:41 | 24.43486 | 54.65334 | 54 ft | 27 kts | 128° |
| 2026-05-09 01:42 | 24.43367 | 54.65500 | 54 ft | 28 kts | 127° |
| 2026-05-09 01:42 | 24.43244 | 54.65675 | 59 ft | 30 kts | 128° |
| 2026-05-09 01:42 | 24.43117 | 54.65859 | 54 ft | 31 kts | 128° |
| 2026-05-09 01:42 | 24.42984 | 54.66047 | 54 ft | 32 kts | 127° |
| 2026-05-09 01:43 | 24.42845 | 54.66241 | 53 ft | 33 kts | 129° |
| 2026-05-09 01:43 | 24.42707 | 54.66432 | 53 ft | 28 kts | 127° |
| 2026-05-09 01:43 | 24.42602 | 54.66584 | 55 ft | 25 kts | 127° |
| 2026-05-09 01:43 | 24.42495 | 54.66735 | 52 ft | 26 kts | 128° |
| 2026-05-09 01:44 | 24.42391 | 54.66849 | 54 ft | 18 kts | 166° |
| 2026-05-09 01:44 | 24.42280 | 54.66795 | 49 ft | 19 kts | 217° |
| 2026-05-09 01:44 | 24.42194 | 54.66713 | 50 ft | 7 kts | 248° |
| 2026-05-09 01:44 | 24.42198 | 54.66678 | 50 ft | 5 kts | 283° |
| 2026-05-09 01:45 | 24.42216 | 54.66646 | 57 ft | 6 kts | 306° |
| 2026-05-09 01:45 | 24.42286 | 54.66546 | 51 ft | 43 kts | 308° |
| 2026-05-09 01:45 | 24.42629 | 54.66064 | 57 ft | 116 kts | 308° |
| 2026-05-09 01:45 | 24.43252 | 54.65188 | 268 ft | 162 kts | 307° |
| 2026-05-09 01:46 | 24.43992 | 54.64154 | 819 ft | 192 kts | 306° |
| 2026-05-09 01:46 | 24.44892 | 54.62875 | 1519 ft | 219 kts | 306° |
| 2026-05-09 01:46 | 24.45832 | 54.61544 | 2483 ft | 222 kts | 306° |
| 2026-05-09 01:46 | 24.46771 | 54.60217 | 3264 ft | 223 kts | 306° |
| 2026-05-09 01:47 | 24.47721 | 54.58877 | 4084 ft | 222 kts | 308° |
| 2026-05-09 01:47 | 24.48681 | 54.57523 | 4787 ft | 227 kts | 308° |
| 2026-05-09 01:47 | 24.49660 | 54.56138 | 5449 ft | 232 kts | 307° |
| 2026-05-09 01:47 | 24.50660 | 54.54727 | 6127 ft | 236 kts | 307° |
| 2026-05-09 01:48 | 24.51677 | 54.53293 | 6812 ft | 240 kts | 307° |
| 2026-05-09 01:48 | 24.52706 | 54.51841 | 7515 ft | 241 kts | 307° |
| 2026-05-09 01:48 | 24.53747 | 54.50375 | 8225 ft | 245 kts | 307° |
| 2026-05-09 01:48 | 24.54799 | 54.48890 | 8777 ft | 248 kts | 307° |
| 2026-05-09 01:49 | 24.55861 | 54.47387 | 8998 ft | 249 kts | 307° |
| 2026-05-09 01:49 | 24.56914 | 54.45895 | 9030 ft | 251 kts | 307° |
| 2026-05-09 01:49 | 24.57989 | 54.44372 | 9026 ft | 252 kts | 307° |
| 2026-05-09 01:49 | 24.59135 | 54.42916 | 9011 ft | 252 kts | 317° |
| 2026-05-09 01:50 | 24.60663 | 54.41989 | 9020 ft | 254 kts | 344° |
| 2026-05-09 01:50 | 24.62430 | 54.42012 | 9020 ft | 259 kts | 14° |
| 2026-05-09 01:50 | 24.64064 | 54.42865 | 9029 ft | 262 kts | 31° |
| 2026-05-09 01:50 | 24.65344 | 54.44302 | 9026 ft | 268 kts | 58° |
| 2026-05-09 01:51 | 24.65839 | 54.46310 | 9021 ft | 288 kts | 88° |
| 2026-05-09 01:51 | 24.65643 | 54.48577 | 9013 ft | 306 kts | 98° |
| 2026-05-09 01:51 | 24.65275 | 54.50904 | 9012 ft | 310 kts | 99° |
| 2026-05-09 01:51 | 24.64891 | 54.53243 | 9026 ft | 310 kts | 99° |
| 2026-05-09 01:52 | 24.64528 | 54.55557 | 9019 ft | 310 kts | 98° |
| 2026-05-09 01:52 | 24.64172 | 54.57896 | 9019 ft | 310 kts | 98° |
| 2026-05-09 01:52 | 24.63823 | 54.60234 | 9025 ft | 310 kts | 98° |
| 2026-05-09 01:52 | 24.63458 | 54.62583 | 9028 ft | 311 kts | 101° |
| 2026-05-09 01:53 | 24.62977 | 54.64904 | 9019 ft | 311 kts | 103° |
| 2026-05-09 01:53 | 24.62453 | 54.67212 | 9025 ft | 310 kts | 103° |
| 2026-05-09 01:53 | 24.61933 | 54.69486 | 9028 ft | 311 kts | 103° |
| 2026-05-09 01:53 | 24.61403 | 54.71792 | 9023 ft | 311 kts | 103° |
| 2026-05-09 01:54 | 24.60874 | 54.74101 | 9147 ft | 312 kts | 103° |
| 2026-05-09 01:54 | 24.60183 | 54.76363 | 9655 ft | 314 kts | 117° |
| 2026-05-09 01:54 | 24.58884 | 54.78275 | 10350 ft | 315 kts | 133° |
| 2026-05-09 01:54 | 24.57302 | 54.80018 | 10650 ft | 329 kts | 136° |
| 2026-05-09 01:55 | 24.55596 | 54.81798 | 10908 ft | 345 kts | 136° |
| 2026-05-09 01:55 | 24.53815 | 54.83649 | 11143 ft | 360 kts | 136° |
| 2026-05-09 01:55 | 24.51971 | 54.85576 | 11415 ft | 371 kts | 136° |
| 2026-05-09 01:55 | 24.50084 | 54.87554 | 11866 ft | 377 kts | 135° |
| 2026-05-09 01:56 | 24.48211 | 54.89522 | 12424 ft | 379 kts | 135° |
| 2026-05-09 01:56 | 24.46307 | 54.91527 | 13053 ft | 379 kts | 135° |
| 2026-05-09 01:56 | 24.44402 | 54.93534 | 13636 ft | 380 kts | 136° |
| 2026-05-09 01:56 | 24.42486 | 54.95551 | 14188 ft | 383 kts | 136° |
| 2026-05-09 01:57 | 24.40546 | 54.97593 | 14712 ft | 386 kts | 136° |
| 2026-05-09 01:57 | 24.38601 | 54.99639 | 15219 ft | 389 kts | 136° |
| 2026-05-09 01:57 | 24.36637 | 55.01703 | 15726 ft | 392 kts | 136° |
| 2026-05-09 01:57 | 24.34661 | 55.03779 | 16208 ft | 394 kts | 136° |
| 2026-05-09 01:58 | 24.32676 | 55.05861 | 16686 ft | 397 kts | 137° |
| 2026-05-09 01:58 | 24.30634 | 55.07918 | 17125 ft | 400 kts | 138° |
| 2026-05-09 01:58 | 24.28560 | 55.09970 | 17582 ft | 402 kts | 138° |
| 2026-05-09 01:58 | 24.26472 | 55.12027 | 17993 ft | 405 kts | 139° |
| 2026-05-09 01:59 | 24.24376 | 55.14093 | 18422 ft | 407 kts | 139° |
| 2026-05-09 01:59 | 24.22265 | 55.16175 | 18801 ft | 409 kts | 139° |
| 2026-05-09 01:59 | 24.20159 | 55.18250 | 19193 ft | 412 kts | 139° |
| 2026-05-09 01:59 | 24.18025 | 55.20353 | 19556 ft | 414 kts | 139° |
| 2026-05-09 02:00 | 24.15878 | 55.22469 | 19918 ft | 416 kts | 139° |
| 2026-05-09 02:00 | 24.13718 | 55.24597 | 20261 ft | 419 kts | 139° |
| 2026-05-09 02:00 | 24.11535 | 55.26746 | 20620 ft | 421 kts | 139° |
| 2026-05-09 02:00 | 24.09352 | 55.28893 | 20839 ft | 425 kts | 139° |
| 2026-05-09 02:01 | 24.07141 | 55.31106 | 20866 ft | 435 kts | 136° |
| 2026-05-09 02:01 | 24.05229 | 55.33698 | 20867 ft | 442 kts | 122° |
| 2026-05-09 02:01 | 24.03798 | 55.36679 | 20874 ft | 443 kts | 116° |
| 2026-05-09 02:01 | 24.02580 | 55.39785 | 20879 ft | 444 kts | 113° |
| 2026-05-09 02:02 | 24.01473 | 55.42938 | 20878 ft | 444 kts | 111° |
| 2026-05-09 02:02 | 24.00417 | 55.46071 | 20878 ft | 444 kts | 111° |
| 2026-05-09 02:02 | 23.99346 | 55.49241 | 20879 ft | 444 kts | 111° |
| 2026-05-09 02:02 | 23.98245 | 55.52442 | 20878 ft | 444 kts | 112° |
| 2026-05-09 02:03 | 23.97148 | 55.55553 | 20878 ft | 444 kts | 113° |
| 2026-05-09 02:03 | 23.95868 | 55.58626 | 20879 ft | 443 kts | 116° |
| 2026-05-09 02:03 | 23.94964 | 55.60675 | 20879 ft | 443 kts | 117° |
| 2026-05-09 02:03 | 23.93140 | 55.64663 | 20877 ft | 443 kts | 118° |
| 2026-05-09 02:04 | 23.91738 | 55.67659 | 20870 ft | 443 kts | 118° |
| 2026-05-09 02:04 | 23.90804 | 55.69643 | 20869 ft | 442 kts | 118° |
| 2026-05-09 02:04 | 23.89394 | 55.72630 | 20868 ft | 442 kts | 118° |
| 2026-05-09 02:04 | 23.87988 | 55.75617 | 20870 ft | 442 kts | 118° |
| 2026-05-09 02:05 | 23.86580 | 55.78613 | 20869 ft | 442 kts | 118° |
| 2026-05-09 02:05 | 23.85177 | 55.81601 | 20865 ft | 442 kts | 118° |
| 2026-05-09 02:05 | 23.83775 | 55.84589 | 20862 ft | 442 kts | 118° |
| 2026-05-09 02:05 | 23.82370 | 55.87582 | 20859 ft | 443 kts | 118° |
| 2026-05-09 02:06 | 23.80962 | 55.90583 | 20859 ft | 442 kts | 118° |
| 2026-05-09 02:06 | 23.79559 | 55.93573 | 20851 ft | 442 kts | 118° |
| 2026-05-09 02:06 | 23.78156 | 55.96570 | 20850 ft | 442 kts | 118° |
| 2026-05-09 02:07 | 23.75359 | 56.02519 | 20844 ft | 443 kts | 118° |
| 2026-05-09 02:07 | 23.73949 | 56.05513 | 20840 ft | 443 kts | 118° |
| 2026-05-09 02:07 | 23.72543 | 56.08501 | 20841 ft | 442 kts | 118° |
| 2026-05-09 02:07 | 23.71136 | 56.11487 | 20842 ft | 442 kts | 118° |
| 2026-05-09 02:08 | 23.69727 | 56.14478 | 20835 ft | 442 kts | 118° |
| 2026-05-09 02:08 | 23.68318 | 56.17468 | 20832 ft | 442 kts | 118° |
| 2026-05-09 02:08 | 23.66910 | 56.20452 | 20833 ft | 442 kts | 118° |
| 2026-05-09 02:08 | 23.65502 | 56.23433 | 20832 ft | 442 kts | 118° |
| 2026-05-09 02:09 | 23.64095 | 56.26411 | 20831 ft | 442 kts | 118° |
| 2026-05-09 02:09 | 23.62686 | 56.29391 | 20823 ft | 442 kts | 118° |
| 2026-05-09 02:09 | 23.61295 | 56.32331 | 20822 ft | 442 kts | 118° |
| 2026-05-09 02:09 | 23.59885 | 56.35309 | 20822 ft | 442 kts | 118° |
| 2026-05-09 02:10 | 23.58472 | 56.38290 | 20823 ft | 442 kts | 118° |
| 2026-05-09 02:10 | 23.57059 | 56.41270 | 20823 ft | 442 kts | 118° |
| 2026-05-09 02:10 | 23.55649 | 56.44242 | 20823 ft | 442 kts | 118° |
| 2026-05-09 02:10 | 23.54239 | 56.47215 | 20823 ft | 441 kts | 118° |
| 2026-05-09 02:11 | 23.52830 | 56.50190 | 20822 ft | 441 kts | 118° |
| 2026-05-09 02:11 | 23.51421 | 56.53164 | 20823 ft | 441 kts | 118° |
| 2026-05-09 02:11 | 23.50013 | 56.56134 | 20821 ft | 441 kts | 118° |
| 2026-05-09 02:11 | 23.48601 | 56.59107 | 20823 ft | 441 kts | 118° |
| 2026-05-09 02:12 | 23.47193 | 56.62069 | 20825 ft | 441 kts | 118° |
| 2026-05-09 02:12 | 23.45782 | 56.65035 | 20819 ft | 441 kts | 118° |
| 2026-05-09 02:12 | 23.44388 | 56.67965 | 20783 ft | 441 kts | 118° |
| 2026-05-09 02:12 | 23.42978 | 56.70929 | 20777 ft | 441 kts | 118° |
| 2026-05-09 02:13 | 23.41566 | 56.73897 | 20775 ft | 441 kts | 118° |
| 2026-05-09 02:13 | 23.40153 | 56.76864 | 20776 ft | 440 kts | 118° |
| 2026-05-09 02:13 | 23.38741 | 56.79826 | 20776 ft | 440 kts | 118° |
| 2026-05-09 02:13 | 23.37329 | 56.82783 | 20777 ft | 440 kts | 118° |
| 2026-05-09 02:14 | 23.36010 | 56.85784 | 20782 ft | 440 kts | 111° |
| 2026-05-09 02:14 | 23.35215 | 56.88998 | 20778 ft | 442 kts | 99° |
| 2026-05-09 02:14 | 23.35160 | 56.92345 | 20777 ft | 444 kts | 85° |
| 2026-05-09 02:14 | 23.35624 | 56.95632 | 20776 ft | 445 kts | 81° |
| 2026-05-09 02:15 | 23.36215 | 56.98940 | 20779 ft | 445 kts | 80° |
| 2026-05-09 02:15 | 23.36827 | 57.02240 | 20776 ft | 445 kts | 79° |
| 2026-05-09 02:15 | 23.37439 | 57.05536 | 20774 ft | 446 kts | 79° |
| 2026-05-09 02:15 | 23.38125 | 57.08846 | 20777 ft | 446 kts | 78° |
| 2026-05-09 02:16 | 23.38859 | 57.12129 | 20780 ft | 445 kts | 77° |
| 2026-05-09 02:16 | 23.39594 | 57.15397 | 20778 ft | 445 kts | 77° |
| 2026-05-09 02:16 | 23.40329 | 57.18673 | 20776 ft | 445 kts | 77° |
| 2026-05-09 02:16 | 23.41063 | 57.21953 | 20775 ft | 444 kts | 77° |
| 2026-05-09 02:17 | 23.41793 | 57.25223 | 20780 ft | 444 kts | 77° |
| 2026-05-09 02:17 | 23.42523 | 57.28497 | 20778 ft | 445 kts | 77° |
| 2026-05-09 02:17 | 23.43252 | 57.31776 | 20774 ft | 445 kts | 77° |
| 2026-05-09 02:17 | 23.43979 | 57.35049 | 20777 ft | 444 kts | 78° |
| 2026-05-09 02:18 | 23.44696 | 57.38281 | 20776 ft | 444 kts | 78° |
| 2026-05-09 02:18 | 23.45421 | 57.41553 | 20776 ft | 444 kts | 78° |
| 2026-05-09 02:18 | 23.46145 | 57.44825 | 20776 ft | 444 kts | 78° |
| 2026-05-09 02:18 | 23.46870 | 57.48102 | 20776 ft | 444 kts | 78° |
| 2026-05-09 02:19 | 23.47592 | 57.51371 | 20775 ft | 444 kts | 78° |
| 2026-05-09 02:19 | 23.48235 | 57.54657 | 20773 ft | 443 kts | 83° |
| 2026-05-09 02:19 | 23.48447 | 57.57962 | 20574 ft | 431 kts | 90° |
| 2026-05-09 02:19 | 23.48473 | 57.61182 | 20337 ft | 421 kts | 91° |
| 2026-05-09 02:20 | 23.48470 | 57.64367 | 20091 ft | 418 kts | 91° |
| 2026-05-09 02:20 | 23.48468 | 57.67527 | 19840 ft | 417 kts | 91° |
| 2026-05-09 02:20 | 23.48470 | 57.70644 | 19587 ft | 415 kts | 91° |
| 2026-05-09 02:20 | 23.48474 | 57.73780 | 19327 ft | 412 kts | 91° |
| 2026-05-09 02:21 | 23.48480 | 57.76894 | 19092 ft | 410 kts | 91° |
| 2026-05-09 02:21 | 23.48486 | 57.79993 | 18848 ft | 407 kts | 91° |
| 2026-05-09 02:21 | 23.48492 | 57.83067 | 18591 ft | 405 kts | 91° |
| 2026-05-09 02:21 | 23.48498 | 57.86127 | 18336 ft | 403 kts | 91° |
| 2026-05-09 02:22 | 23.48499 | 57.89172 | 18096 ft | 400 kts | 92° |
| 2026-05-09 02:22 | 23.48461 | 57.92172 | 17707 ft | 391 kts | 92° |
| 2026-05-09 02:22 | 23.48411 | 57.95120 | 17147 ft | 386 kts | 92° |
| 2026-05-09 02:22 | 23.48359 | 57.98030 | 16570 ft | 382 kts | 92° |
| 2026-05-09 02:23 | 23.48308 | 58.00875 | 16005 ft | 378 kts | 92° |
| 2026-05-09 02:23 | 23.48256 | 58.03731 | 15438 ft | 374 kts | 92° |
| 2026-05-09 02:23 | 23.48210 | 58.06550 | 14869 ft | 370 kts | 92° |
| 2026-05-09 02:23 | 23.48163 | 58.09322 | 14572 ft | 359 kts | 92° |
| 2026-05-09 02:24 | 23.48113 | 58.11972 | 14504 ft | 340 kts | 92° |
| 2026-05-09 02:24 | 23.48066 | 58.14488 | 14395 ft | 325 kts | 92° |
| 2026-05-09 02:24 | 23.48019 | 58.16900 | 14301 ft | 311 kts | 92° |
| 2026-05-09 02:24 | 23.47975 | 58.19197 | 14231 ft | 297 kts | 92° |
| 2026-05-09 02:25 | 23.47932 | 58.21400 | 14170 ft | 285 kts | 93° |
| 2026-05-09 02:25 | 23.47897 | 58.23519 | 14063 ft | 275 kts | 91° |
| 2026-05-09 02:25 | 23.47982 | 58.25585 | 13786 ft | 271 kts | 88° |
| 2026-05-09 02:25 | 23.48139 | 58.27636 | 13167 ft | 280 kts | 86° |
| 2026-05-09 02:26 | 23.48320 | 58.29794 | 12427 ft | 291 kts | 86° |
| 2026-05-09 02:26 | 23.48509 | 58.32024 | 11683 ft | 299 kts | 86° |
| 2026-05-09 02:26 | 23.48699 | 58.34271 | 10953 ft | 296 kts | 85° |
| 2026-05-09 02:26 | 23.48884 | 58.36487 | 10227 ft | 291 kts | 85° |
| 2026-05-09 02:27 | 23.49067 | 58.38668 | 9522 ft | 288 kts | 84° |
| 2026-05-09 02:27 | 23.49246 | 58.40828 | 8802 ft | 284 kts | 84° |
| 2026-05-09 02:27 | 23.49425 | 58.42970 | 8076 ft | 282 kts | 83° |
| 2026-05-09 02:27 | 23.49600 | 58.45091 | 7350 ft | 281 kts | 83° |
| 2026-05-09 02:28 | 23.49770 | 58.47210 | 6630 ft | 280 kts | 82° |
| 2026-05-09 02:28 | 23.49941 | 58.49309 | 5912 ft | 277 kts | 82° |
| 2026-05-09 02:28 | 23.50111 | 58.51378 | 5202 ft | 278 kts | 83° |
| 2026-05-09 02:28 | 23.50283 | 58.53468 | 4673 ft | 274 kts | 84° |
| 2026-05-09 02:29 | 23.50445 | 58.55496 | 4295 ft | 264 kts | 83° |
| 2026-05-09 02:29 | 23.50604 | 58.57464 | 3895 ft | 258 kts | 83° |
| 2026-05-09 02:29 | 23.50764 | 58.59399 | 3494 ft | 253 kts | 83° |
| 2026-05-09 02:29 | 23.50990 | 58.61270 | 3113 ft | 245 kts | 75° |
| 2026-05-09 02:30 | 23.51627 | 58.62929 | 2753 ft | 232 kts | 53° |
| 2026-05-09 02:30 | 23.52724 | 58.64165 | 2362 ft | 222 kts | 31° |
| 2026-05-09 02:30 | 23.54066 | 58.64832 | 2215 ft | 202 kts | 11° |
| 2026-05-09 02:30 | 23.55368 | 58.64987 | 2192 ft | 181 kts | 355° |
| 2026-05-09 02:31 | 23.56592 | 58.64914 | 2198 ft | 170 kts | 351° |
| 2026-05-09 02:31 | 23.57726 | 58.64804 | 2201 ft | 160 kts | 349° |
| 2026-05-09 02:31 | 23.58810 | 58.64611 | 2201 ft | 156 kts | 341° |
| 2026-05-09 02:31 | 23.59806 | 58.64180 | 2192 ft | 152 kts | 327° |
| 2026-05-09 02:32 | 23.60646 | 58.63500 | 2194 ft | 150 kts | 312° |
| 2026-05-09 02:32 | 23.61272 | 58.62606 | 2194 ft | 148 kts | 295° |
| 2026-05-09 02:32 | 23.61609 | 58.61555 | 2194 ft | 147 kts | 282° |
| 2026-05-09 02:32 | 23.61742 | 58.60456 | 2197 ft | 146 kts | 273° |
| 2026-05-09 02:33 | 23.61745 | 58.59364 | 2207 ft | 142 kts | 268° |
| 2026-05-09 02:33 | 23.61676 | 58.58295 | 2210 ft | 142 kts | 265° |
| 2026-05-09 02:33 | 23.61584 | 58.57223 | 2197 ft | 142 kts | 265° |
| 2026-05-09 02:33 | 23.61497 | 58.56155 | 2198 ft | 142 kts | 265° |
| 2026-05-09 02:34 | 23.61415 | 58.55083 | 2194 ft | 142 kts | 266° |
| 2026-05-09 02:34 | 23.61335 | 58.54003 | 2190 ft | 143 kts | 266° |
| 2026-05-09 02:34 | 23.61256 | 58.52927 | 2180 ft | 142 kts | 265° |
| 2026-05-09 02:34 | 23.61175 | 58.51867 | 2194 ft | 142 kts | 265° |
| 2026-05-09 02:35 | 23.61094 | 58.50798 | 2195 ft | 141 kts | 266° |
| 2026-05-09 02:35 | 23.61011 | 58.49726 | 2196 ft | 142 kts | 266° |
| 2026-05-09 02:35 | 23.60926 | 58.48651 | 2195 ft | 142 kts | 266° |
| 2026-05-09 02:35 | 23.60839 | 58.47580 | 2195 ft | 142 kts | 266° |
| 2026-05-09 02:36 | 23.60751 | 58.46507 | 2196 ft | 143 kts | 266° |
| 2026-05-09 02:36 | 23.60663 | 58.45427 | 2196 ft | 143 kts | 266° |
| 2026-05-09 02:36 | 23.60576 | 58.44350 | 2199 ft | 142 kts | 265° |
| 2026-05-09 02:36 | 23.60490 | 58.43278 | 2192 ft | 142 kts | 266° |
| 2026-05-09 02:37 | 23.60406 | 58.42212 | 2130 ft | 144 kts | 261° |
| 2026-05-09 02:37 | 23.60321 | 58.41132 | 1938 ft | 142 kts | 262° |
| 2026-05-09 02:37 | 23.60235 | 58.40056 | 1740 ft | 143 kts | 263° |
| 2026-05-09 02:37 | 23.60150 | 58.38974 | 1549 ft | 143 kts | 263° |
| 2026-05-09 02:38 | 23.60063 | 58.37893 | 1357 ft | 143 kts | 264° |
| 2026-05-09 02:38 | 23.59978 | 58.36821 | 1165 ft | 140 kts | 265° |
| 2026-05-09 02:38 | 23.59894 | 58.35770 | 981 ft | 139 kts | 265° |
| 2026-05-09 02:38 | 23.59807 | 58.34725 | 796 ft | 138 kts | 263° |
| 2026-05-09 02:39 | 23.59703 | 58.33691 | 640 ft | 137 kts | 263° |
| 2026-05-09 02:39 | 23.59637 | 58.32659 | 455 ft | 137 kts | 264° |
| 2026-05-09 02:39 | 23.59548 | 58.31625 | 285 ft | 136 kts | 264° |
| 2026-05-09 02:39 | 23.59474 | 58.30595 | 136 ft | 136 kts | 265° |
| 2026-05-09 02:40 | 23.59388 | 58.29588 | 41 ft | 123 kts | 263° |
| 2026-05-09 02:40 | 23.59347 | 58.28869 | 41 ft | 61 kts | 269° |
| 2026-05-09 02:40 | 23.59441 | 58.28518 | 42 ft | 46 kts | 297° |
| 2026-05-09 02:40 | 23.59674 | 58.28415 | 42 ft | 32 kts | 356° |
| 2026-05-09 02:41 | 23.59888 | 58.28421 | 42 ft | 30 kts | 13° |
| 2026-05-09 02:41 | 23.59975 | 58.28427 | 42 ft | 0 kts | 356° |